createdAt,value
2019-03-22T00:02:05.687Z,14.90
2019-03-22T00:04:34.900Z,16.50
2019-03-22T00:07:04.753Z,15.08
2019-03-22T00:09:34.700Z,13.93
2019-03-22T00:12:04.389Z,15.85
2019-03-22T00:14:33.823Z,14.68
2019-03-22T00:17:07.555Z,13.78
2019-03-22T00:19:37.956Z,14.35
2019-03-22T00:22:07.365Z,12.95
2019-03-22T00:24:36.967Z,14.40
2019-03-22T00:27:15.830Z,11.70
2019-03-22T00:29:37.442Z,12.43
2019-03-22T00:32:06.620Z,13.38
2019-03-22T00:34:35.901Z,11.22
2019-03-22T00:37:06.702Z,12.25
2019-03-22T00:39:35.989Z,13.22
2019-03-22T00:42:05.236Z,15.75
2019-03-22T00:44:34.524Z,13.25
2019-03-22T00:47:09.752Z,22.82
2019-03-22T00:49:38.966Z,14.13
2019-03-22T00:52:08.177Z,12.45
2019-03-22T00:54:37.502Z,13.28
2019-03-22T00:57:06.772Z,16.10
2019-03-22T00:59:36.225Z,14.53
2019-03-22T01:02:05.932Z,19.82
2019-03-22T01:04:35.345Z,14.23
2019-03-22T01:07:04.861Z,19.67
2019-03-22T01:09:34.194Z,16.45
2019-03-22T01:12:03.446Z,16.02
2019-03-22T01:14:32.659Z,13.45
2019-03-22T01:17:09.035Z,15.83
2019-03-22T01:19:38.347Z,28.98
2019-03-22T01:22:08.873Z,12.80
2019-03-22T01:24:45.233Z,13.65
2019-03-22T01:27:15.382Z,15.38
2019-03-22T01:29:44.770Z,13.03
2019-03-22T01:32:15.798Z,12.10
2019-03-22T01:34:45.394Z,13.15
2019-03-22T01:37:14.709Z,13.25
2019-03-22T01:39:45.872Z,12.37
2019-03-22T01:42:15.120Z,11.85
2019-03-22T01:44:44.937Z,13.50
2019-03-22T01:47:14.223Z,10.15
2019-03-22T01:49:43.599Z,14.18
2019-03-22T01:52:12.899Z,13.58
2019-03-22T01:54:42.097Z,13.20
2019-03-22T01:57:11.282Z,10.78
2019-03-22T01:59:40.506Z,11.45
2019-03-22T02:02:09.808Z,10.85
2019-03-22T02:04:39.126Z,12.10
2019-03-22T02:07:08.487Z,10.32
2019-03-22T02:09:39.510Z,10.90
2019-03-22T02:12:09.544Z,12.07
2019-03-22T02:14:38.872Z,11.85
2019-03-22T02:17:11.846Z,10.75
2019-03-22T02:19:41.219Z,11.53
2019-03-22T02:22:10.426Z,12.55
2019-03-22T02:24:39.639Z,10.15
2019-03-22T02:27:09.241Z,11.75
2019-03-22T02:29:38.461Z,11.75
2019-03-22T02:32:07.745Z,10.70
2019-03-22T02:34:36.938Z,10.50
2019-03-22T02:37:07.245Z,11.33
2019-03-22T02:39:36.501Z,9.95
2019-03-22T02:42:05.965Z,9.93
2019-03-22T02:44:35.166Z,11.80
2019-03-22T02:47:13.067Z,11.63
2019-03-22T02:49:42.716Z,16.23
2019-03-22T02:52:12.138Z,15.00
2019-03-22T02:54:41.357Z,13.80
2019-03-22T02:57:10.954Z,10.63
2019-03-22T02:59:40.423Z,9.55
2019-03-22T03:02:09.708Z,9.93
2019-03-22T03:04:39.071Z,13.88
2019-03-22T03:07:08.498Z,10.45
2019-03-22T03:09:37.806Z,14.05
2019-03-22T03:12:08.792Z,13.15
2019-03-22T03:14:37.985Z,10.78
2019-03-22T03:17:13.349Z,13.00
2019-03-22T03:19:42.793Z,10.38
2019-03-22T03:22:12.104Z,10.40
2019-03-22T03:24:41.269Z,12.37
2019-03-22T03:27:10.590Z,9.63
2019-03-22T03:29:41.605Z,11.63
2019-03-22T03:32:10.828Z,13.72
2019-03-22T03:34:40.015Z,11.83
2019-03-22T03:37:09.207Z,13.43
2019-03-22T03:39:40.286Z,8.75
2019-03-22T03:42:09.482Z,10.60
2019-03-22T03:44:39.299Z,9.60
2019-03-22T03:47:14.095Z,8.88
2019-03-22T03:49:43.516Z,11.83
2019-03-22T03:52:12.991Z,10.13
2019-03-22T03:54:42.193Z,13.40
2019-03-22T03:57:11.405Z,11.05
2019-03-22T03:59:42.550Z,12.13
2019-03-22T04:02:11.948Z,11.55
2019-03-22T04:04:41.357Z,11.48
2019-03-22T04:07:11.710Z,13.32
2019-03-22T04:09:41.968Z,10.70
2019-03-22T04:12:11.385Z,13.03
2019-03-22T04:14:40.975Z,12.03
2019-03-22T04:17:16.116Z,14.10
2019-03-22T04:19:45.344Z,10.25
2019-03-22T04:22:14.541Z,11.05
2019-03-22T04:24:43.937Z,8.85
2019-03-22T04:27:13.238Z,14.60
2019-03-22T04:29:42.574Z,9.43
2019-03-22T04:32:12.183Z,10.75
2019-03-22T04:34:41.404Z,9.40
2019-03-22T04:37:10.601Z,12.47
2019-03-22T04:39:39.938Z,11.93
2019-03-22T04:42:10.867Z,11.53
2019-03-22T04:44:41.859Z,11.50
2019-03-22T04:47:17.870Z,13.45
2019-03-22T04:49:50.474Z,10.80
2019-03-22T04:52:23.595Z,11.48
2019-03-22T04:54:55.907Z,10.68
2019-03-22T04:57:26.510Z,13.32
2019-03-22T04:59:58.633Z,14.45
2019-03-22T05:02:30.035Z,13.13
2019-03-22T05:04:59.570Z,11.08
2019-03-22T05:07:29.584Z,13.83
2019-03-22T05:09:59.494Z,9.35
2019-03-22T05:12:30.815Z,10.10
2019-03-22T05:15:00.702Z,13.62
2019-03-22T05:17:31.621Z,12.70
2019-03-22T05:20:03.447Z,14.10
2019-03-22T05:22:35.668Z,10.40
2019-03-22T05:25:07.311Z,12.93
2019-03-22T05:27:39.963Z,11.75
2019-03-22T05:30:50.998Z,10.15
2019-03-22T05:33:20.735Z,11.57
2019-03-22T05:35:50.195Z,13.88
2019-03-22T05:38:19.600Z,10.85
2019-03-22T05:40:49.507Z,12.45
2019-03-22T05:43:19.175Z,11.85
2019-03-22T05:45:50.494Z,10.13
2019-03-22T05:48:20.891Z,12.07
2019-03-22T05:50:50.100Z,12.03
2019-03-22T05:53:19.701Z,10.15
2019-03-22T05:55:48.937Z,10.70
2019-03-22T05:58:18.265Z,11.38
2019-03-22T06:00:47.699Z,11.40
2019-03-22T06:03:17.704Z,12.50
2019-03-22T06:05:48.742Z,11.03
2019-03-22T06:08:18.149Z,15.08
2019-03-22T06:10:47.334Z,13.48
2019-03-22T06:13:16.648Z,15.45
2019-03-22T06:15:45.833Z,11.55
2019-03-22T06:18:15.156Z,15.53
2019-03-22T06:20:44.371Z,12.53
2019-03-22T06:23:13.996Z,18.20
2019-03-22T06:25:44.499Z,12.20
2019-03-22T06:28:13.844Z,17.20
2019-03-22T06:30:43.081Z,13.35
2019-03-22T06:33:12.378Z,18.50
2019-03-22T06:35:41.587Z,16.67
2019-03-22T06:38:11.071Z,14.98
2019-03-22T06:40:40.506Z,14.60
2019-03-22T06:43:09.796Z,16.37
2019-03-22T06:45:39.283Z,10.45
2019-03-22T06:48:08.503Z,13.95
2019-03-22T06:50:38.217Z,10.03
2019-03-22T06:53:07.586Z,15.60
2019-03-22T06:55:38.000Z,9.80
2019-03-22T06:58:07.776Z,12.83
2019-03-22T07:00:37.045Z,10.63
2019-03-22T07:03:06.353Z,10.23
2019-03-22T07:05:35.767Z,9.30
2019-03-22T07:08:05.119Z,10.80
2019-03-22T07:10:34.892Z,9.83
2019-03-22T07:13:07.342Z,11.60
2019-03-22T07:15:36.959Z,16.10
2019-03-22T07:18:06.294Z,9.93
2019-03-22T07:20:35.597Z,13.63
2019-03-22T07:23:05.080Z,12.07
2019-03-22T07:25:35.084Z,11.60
2019-03-22T07:28:04.745Z,9.17
2019-03-22T07:30:34.334Z,10.23
2019-03-22T07:33:03.685Z,11.30
2019-03-22T07:35:33.077Z,10.40
2019-03-22T07:38:02.406Z,10.23
2019-03-22T07:40:31.712Z,15.13
2019-03-22T07:43:00.912Z,12.33
2019-03-22T07:45:30.098Z,13.00
2019-03-22T07:47:59.617Z,16.53
2019-03-22T07:50:30.207Z,14.97
2019-03-22T07:52:59.421Z,16.20
2019-03-22T07:55:28.609Z,13.77
2019-03-22T07:57:58.527Z,16.63
2019-03-22T08:00:31.019Z,17.30
2019-03-22T08:03:00.622Z,17.37
2019-03-22T08:05:29.830Z,16.13
2019-03-22T08:07:59.218Z,14.50
2019-03-22T08:10:28.481Z,16.63
2019-03-22T08:12:57.686Z,14.80
2019-03-22T08:15:31.270Z,14.43
2019-03-22T08:18:00.981Z,18.07
2019-03-22T08:20:30.898Z,20.97
2019-03-22T08:23:00.194Z,16.47
2019-03-22T08:25:32.245Z,16.07
2019-03-22T08:28:00.712Z,17.40
2019-03-22T08:30:42.137Z,17.90
2019-03-22T08:33:01.170Z,31.70
2019-03-22T08:35:30.515Z,17.20
2019-03-22T08:37:59.788Z,17.40
2019-03-22T08:40:31.010Z,17.93
2019-03-22T08:43:00.161Z,18.97
2019-03-22T08:45:29.494Z,20.33
2019-03-22T08:47:58.756Z,18.30
2019-03-22T08:50:28.124Z,20.13
2019-03-22T08:52:57.494Z,18.77
2019-03-22T08:55:26.780Z,26.87
2019-03-22T08:57:56.437Z,16.13
2019-03-22T09:00:38.752Z,17.60
2019-03-22T09:02:58.632Z,17.53
2019-03-22T09:05:27.823Z,15.33
2019-03-22T09:07:57.118Z,19.17
2019-03-22T09:10:26.374Z,19.80
2019-03-22T09:12:55.677Z,15.60
2019-03-22T09:15:24.903Z,20.20
2019-03-22T09:17:54.278Z,18.33
2019-03-22T09:20:23.708Z,16.77
2019-03-22T09:22:54.572Z,18.10
2019-03-22T09:25:23.870Z,17.07
2019-03-22T09:27:53.187Z,17.80
2019-03-22T09:30:22.381Z,16.40
2019-03-22T09:32:51.672Z,16.50
2019-03-22T09:35:20.883Z,18.23
2019-03-22T09:37:50.276Z,13.87
2019-03-22T09:40:19.570Z,17.33
2019-03-22T09:42:49.182Z,13.43
2019-03-22T09:45:20.250Z,14.23
2019-03-22T09:47:49.794Z,17.00
2019-03-22T09:50:19.324Z,14.33
2019-03-22T09:52:48.528Z,14.43
2019-03-22T09:55:18.915Z,14.03
2019-03-22T09:57:49.415Z,15.40
2019-03-22T10:00:32.942Z,14.73
2019-03-22T10:03:02.799Z,13.97
2019-03-22T10:05:31.988Z,13.97
2019-03-22T10:08:01.395Z,12.27
2019-03-22T10:10:30.742Z,16.03
2019-03-22T10:12:59.993Z,11.27
2019-03-22T10:15:29.452Z,15.77
2019-03-22T10:17:59.050Z,14.77
2019-03-22T10:20:28.774Z,12.70
2019-03-22T10:22:58.281Z,12.00
2019-03-22T10:25:27.583Z,13.37
2019-03-22T10:27:57.001Z,23.80
2019-03-22T10:30:27.770Z,12.20
2019-03-22T10:32:57.442Z,12.33
2019-03-22T10:35:27.252Z,14.70
2019-03-22T10:38:01.014Z,11.70
2019-03-22T10:40:29.464Z,12.10
2019-03-22T10:42:58.743Z,12.23
2019-03-22T10:45:28.141Z,12.40
2019-03-22T10:47:57.346Z,13.90
2019-03-22T10:50:26.668Z,14.50
2019-03-22T10:52:56.076Z,14.23
2019-03-22T10:55:30.420Z,12.17
2019-03-22T10:57:56.874Z,19.30
2019-03-22T11:00:26.303Z,11.90
2019-03-22T11:02:55.513Z,11.33
2019-03-22T11:05:26.601Z,13.77
2019-03-22T11:07:56.297Z,13.77
2019-03-22T11:10:25.496Z,12.73
2019-03-22T11:12:54.787Z,12.20
2019-03-22T11:15:24.161Z,11.77
2019-03-22T11:17:53.456Z,13.30
2019-03-22T11:20:22.948Z,14.83
2019-03-22T11:22:52.247Z,12.50
2019-03-22T11:25:21.432Z,12.30
2019-03-22T11:27:50.904Z,13.00
2019-03-22T11:30:20.265Z,11.23
2019-03-22T11:32:49.450Z,11.50
2019-03-22T11:35:19.046Z,13.00
2019-03-22T11:37:48.344Z,11.70
2019-03-22T11:40:17.761Z,13.03
2019-03-22T11:42:47.064Z,12.70
2019-03-22T11:45:17.701Z,12.43
2019-03-22T11:47:47.178Z,13.03
2019-03-22T11:50:17.000Z,15.63
2019-03-22T11:52:46.306Z,12.03
2019-03-22T11:55:15.917Z,12.50
2019-03-22T11:57:45.512Z,12.23
2019-03-22T12:00:18.305Z,14.03
2019-03-22T12:02:47.782Z,13.00
2019-03-22T12:05:17.701Z,13.63
2019-03-22T12:07:47.199Z,12.77
2019-03-22T12:10:17.554Z,13.30
2019-03-22T12:12:47.265Z,12.87
2019-03-22T12:15:18.706Z,13.50
2019-03-22T12:17:48.679Z,13.80
2019-03-22T12:20:18.169Z,12.50
2019-03-22T12:22:48.896Z,12.80
2019-03-22T12:25:20.688Z,11.37
2019-03-22T12:27:50.014Z,12.43
2019-03-22T12:30:20.150Z,13.07
2019-03-22T12:32:49.398Z,12.53
2019-03-22T12:35:19.329Z,13.03
2019-03-22T12:37:48.938Z,12.07
2019-03-22T12:40:20.041Z,12.77
2019-03-22T12:42:49.734Z,12.07
2019-03-22T12:45:22.124Z,11.10
2019-03-22T12:47:51.515Z,12.33
2019-03-22T12:50:20.893Z,12.37
2019-03-22T12:52:50.272Z,12.10
2019-03-22T12:55:19.580Z,11.20
2019-03-22T12:57:50.658Z,12.53
2019-03-22T13:00:20.733Z,11.03
2019-03-22T13:02:50.157Z,13.07
2019-03-22T13:05:19.570Z,13.60
2019-03-22T13:07:48.976Z,11.47
2019-03-22T13:10:22.437Z,13.63
2019-03-22T13:12:51.899Z,12.83
2019-03-22T13:15:21.494Z,11.90
2019-03-22T13:17:51.101Z,11.63
2019-03-22T13:20:20.693Z,10.60
2019-03-22T13:22:50.046Z,12.40
2019-03-22T13:25:21.399Z,12.03
2019-03-22T13:27:50.754Z,11.37
2019-03-22T13:30:32.875Z,13.30
2019-03-22T13:33:02.460Z,11.33
2019-03-22T13:35:31.771Z,11.63
2019-03-22T13:38:01.099Z,11.50
2019-03-22T13:40:30.381Z,11.50
2019-03-22T13:42:59.612Z,11.67
2019-03-22T13:45:30.855Z,11.60
2019-03-22T13:48:00.131Z,11.60
2019-03-22T13:50:29.425Z,10.70
2019-03-22T13:52:58.884Z,11.47
2019-03-22T13:55:30.105Z,11.27
2019-03-22T13:57:59.487Z,11.07
2019-03-22T14:00:28.878Z,13.80
2019-03-22T14:03:02.971Z,11.67
2019-03-22T14:05:29.901Z,10.17
2019-03-22T14:07:59.544Z,11.03
2019-03-22T14:10:37.852Z,10.73
2019-03-22T14:13:07.917Z,10.47
2019-03-22T14:15:37.563Z,10.37
2019-03-22T14:18:06.851Z,11.10
2019-03-22T14:20:38.566Z,10.63
2019-03-22T14:23:09.215Z,10.93
2019-03-22T14:25:38.625Z,11.80
2019-03-22T14:28:09.087Z,9.73
2019-03-22T14:30:38.579Z,11.13
2019-03-22T14:33:13.282Z,11.00
2019-03-22T14:35:39.253Z,10.53
2019-03-22T14:38:09.137Z,16.13
2019-03-22T14:40:38.614Z,10.10
2019-03-22T14:43:08.339Z,9.93
2019-03-22T14:45:37.562Z,10.27
2019-03-22T14:48:07.059Z,10.13
2019-03-22T14:50:36.507Z,10.23
2019-03-22T14:53:06.080Z,10.80
2019-03-22T14:55:35.502Z,10.30
2019-03-22T14:58:05.352Z,15.03
2019-03-22T15:00:36.598Z,10.70
2019-03-22T15:03:24.462Z,10.10
2019-03-22T15:05:55.658Z,9.73
2019-03-22T15:08:25.473Z,9.43
2019-03-22T15:10:55.048Z,8.63
2019-03-22T15:13:31.615Z,9.30
2019-03-22T15:16:11.649Z,8.77
2019-03-22T15:18:53.242Z,10.63
2019-03-22T15:21:46.854Z,9.00
2019-03-22T15:24:29.704Z,11.00
2019-03-22T15:27:18.169Z,10.83
2019-03-22T15:30:10.831Z,8.97
2019-03-22T15:33:06.990Z,8.70
2019-03-22T15:35:55.096Z,10.40
2019-03-22T15:38:52.989Z,8.30
2019-03-22T15:41:23.472Z,9.97
2019-03-22T15:43:53.498Z,9.50
2019-03-22T15:46:22.918Z,8.80
2019-03-22T15:48:52.693Z,9.20
2019-03-22T15:51:23.270Z,9.37
2019-03-22T15:53:54.410Z,9.27
2019-03-22T15:56:24.537Z,10.07
2019-03-22T15:58:53.964Z,8.20
2019-03-22T16:01:23.424Z,14.27
2019-03-22T16:03:53.405Z,9.90
2019-03-22T16:06:22.819Z,9.30
2019-03-22T16:08:52.588Z,9.27
2019-03-22T16:11:21.952Z,9.87
2019-03-22T16:13:51.315Z,9.03
2019-03-22T16:16:21.717Z,9.00
2019-03-22T16:18:51.143Z,11.57
2019-03-22T16:21:20.564Z,10.33
2019-03-22T16:23:51.224Z,8.63
2019-03-22T16:26:20.763Z,8.30
2019-03-22T16:28:50.196Z,8.27
2019-03-22T16:31:19.497Z,8.43
2019-03-22T16:33:54.354Z,9.50
2019-03-22T16:36:20.375Z,12.23
2019-03-22T16:38:50.130Z,8.27
2019-03-22T16:41:19.430Z,13.40
2019-03-22T16:43:49.104Z,9.67
2019-03-22T16:46:18.709Z,10.03
2019-03-22T16:48:48.459Z,7.90
2019-03-22T16:51:17.679Z,9.60
2019-03-22T16:53:47.101Z,7.33
2019-03-22T16:56:16.630Z,6.93
2019-03-22T16:58:46.711Z,8.33
2019-03-22T17:01:15.999Z,8.00
2019-03-22T17:03:45.771Z,7.27
2019-03-22T17:06:15.303Z,5.97
2019-03-22T17:08:44.917Z,6.40
2019-03-22T17:11:14.438Z,7.43
2019-03-22T17:13:43.923Z,5.80
2019-03-22T17:16:13.418Z,7.67
2019-03-22T17:18:42.859Z,7.63
2019-03-22T17:21:12.386Z,6.50
2019-03-22T17:23:42.428Z,10.47
2019-03-22T17:26:11.987Z,12.50
2019-03-22T17:28:41.256Z,10.93
2019-03-22T17:31:12.613Z,12.60
2019-03-22T17:33:42.139Z,12.83
2019-03-22T17:36:11.675Z,14.73
2019-03-22T17:38:41.156Z,11.57
2019-03-22T17:41:10.478Z,20.07
2019-03-22T17:43:39.721Z,25.07
2019-03-22T17:46:09.072Z,22.33
2019-03-22T17:48:39.246Z,28.73
2019-03-22T17:51:11.136Z,33.17
2019-03-22T17:53:40.734Z,26.73
2019-03-22T17:56:10.375Z,37.67
2019-03-22T17:58:39.907Z,38.57
2019-03-22T18:01:10.305Z,33.47
2019-03-22T18:03:39.576Z,29.67
2019-03-22T18:06:09.099Z,25.83
2019-03-22T18:08:38.516Z,22.00
2019-03-22T18:11:08.213Z,25.37
2019-03-22T18:13:44.549Z,19.60
2019-03-22T18:16:14.042Z,15.80
2019-03-22T18:18:44.879Z,19.53
2019-03-22T18:21:16.283Z,18.03
2019-03-22T18:23:46.073Z,18.03
2019-03-22T18:26:17.183Z,19.33
2019-03-22T18:28:48.496Z,20.40
2019-03-22T18:31:18.260Z,25.40
2019-03-22T18:33:47.979Z,32.57
2019-03-22T18:36:17.605Z,33.07
2019-03-22T18:38:47.017Z,33.13
2019-03-22T18:41:16.676Z,33.63
2019-03-22T18:43:46.188Z,32.77
2019-03-22T18:46:15.834Z,28.57
2019-03-22T18:48:45.501Z,22.77
2019-03-22T18:51:14.869Z,17.97
2019-03-22T18:53:45.103Z,13.60
2019-03-22T18:56:14.948Z,12.17
2019-03-22T18:58:45.464Z,13.00
2019-03-22T19:01:15.356Z,15.97
2019-03-22T19:03:50.232Z,13.40
2019-03-22T19:06:22.913Z,11.70
2019-03-22T19:08:52.111Z,11.43
2019-03-22T19:11:21.808Z,9.03
2019-03-22T19:13:51.364Z,10.33
2019-03-22T19:16:22.462Z,9.77
2019-03-22T19:18:52.007Z,14.43
2019-03-22T19:21:23.400Z,10.70
2019-03-22T19:23:56.595Z,9.90
2019-03-22T19:26:26.412Z,10.23
2019-03-22T19:28:56.160Z,11.30
2019-03-22T19:31:32.707Z,18.10
2019-03-22T19:34:02.019Z,9.30
2019-03-22T19:36:31.702Z,12.67
2019-03-22T19:39:01.459Z,9.73
2019-03-22T19:41:38.271Z,11.80
2019-03-22T19:44:17.209Z,10.17
2019-03-22T19:46:46.839Z,11.30
2019-03-22T19:49:17.386Z,9.37
2019-03-22T19:51:48.605Z,11.20
2019-03-22T19:54:17.814Z,17.20
2019-03-22T19:56:47.350Z,17.70
2019-03-22T19:59:20.504Z,11.20
2019-03-22T20:01:49.990Z,12.87
2019-03-22T20:04:19.912Z,14.37
2019-03-22T20:06:53.537Z,20.60
2019-03-22T20:09:23.143Z,20.13
2019-03-22T20:11:53.865Z,14.47
2019-03-22T20:14:23.351Z,16.47
2019-03-22T20:16:54.883Z,12.67
2019-03-22T20:19:25.309Z,12.77
2019-03-22T20:22:04.967Z,15.50
2019-03-22T20:24:34.209Z,13.27
2019-03-22T20:27:03.776Z,12.50
2019-03-22T20:29:35.590Z,12.90
2019-03-22T20:32:05.197Z,12.63
2019-03-22T20:34:34.788Z,12.87
2019-03-22T20:37:04.103Z,13.57
2019-03-22T20:39:33.452Z,12.17
2019-03-22T20:42:04.594Z,12.40
2019-03-22T20:44:34.788Z,12.10
2019-03-22T20:47:05.790Z,12.10
2019-03-22T20:49:35.048Z,12.10
2019-03-22T20:52:04.307Z,12.10
2019-03-22T20:54:33.997Z,14.53
2019-03-22T20:57:03.548Z,14.07
2019-03-22T20:59:33.051Z,14.60
2019-03-22T21:02:04.448Z,13.73
2019-03-22T21:04:33.786Z,15.53
2019-03-22T21:07:05.073Z,13.70
2019-03-22T21:09:35.089Z,12.93
2019-03-22T21:12:04.792Z,12.47
2019-03-22T21:14:35.371Z,12.47
2019-03-22T21:17:04.679Z,13.07
2019-03-22T21:19:34.225Z,15.00
2019-03-22T21:22:03.608Z,13.93
2019-03-22T21:24:32.935Z,12.40
2019-03-22T21:27:02.419Z,13.90
2019-03-22T21:29:43.483Z,11.53
2019-03-22T21:32:04.111Z,12.70
2019-03-22T21:34:33.445Z,16.00
2019-03-22T21:37:02.850Z,12.30
2019-03-22T21:39:32.294Z,12.40
2019-03-22T21:42:01.616Z,12.50
2019-03-22T21:44:32.412Z,13.77
2019-03-22T21:47:02.047Z,16.27
2019-03-22T21:49:31.565Z,15.03
2019-03-22T21:52:02.405Z,14.70
2019-03-22T21:54:31.866Z,13.13
2019-03-22T21:57:01.406Z,13.27
2019-03-22T21:59:31.011Z,12.00
2019-03-22T22:02:01.639Z,16.57
2019-03-22T22:04:31.126Z,11.10
2019-03-22T22:07:00.607Z,11.07
2019-03-22T22:09:30.127Z,10.20
2019-03-22T22:11:59.526Z,10.67
2019-03-22T22:14:28.827Z,10.73
2019-03-22T22:16:58.107Z,11.83
2019-03-22T22:19:27.456Z,9.90
2019-03-22T22:21:57.134Z,10.00
2019-03-22T22:24:26.439Z,9.43
2019-03-22T22:26:55.830Z,10.37
2019-03-22T22:29:25.125Z,12.33
2019-03-22T22:31:54.426Z,9.33
2019-03-22T22:34:23.625Z,9.40
2019-03-22T22:36:52.928Z,10.33
2019-03-22T22:39:22.129Z,11.50
2019-03-22T22:41:51.347Z,11.17
2019-03-22T22:44:20.640Z,11.33
2019-03-22T22:46:50.037Z,8.00
2019-03-22T22:49:19.263Z,8.80
2019-03-22T22:51:50.278Z,8.77
2019-03-22T22:54:19.489Z,9.67
2019-03-22T22:56:48.659Z,14.17
2019-03-22T22:59:18.003Z,10.20
2019-03-22T23:01:47.474Z,9.93
2019-03-22T23:04:16.800Z,9.43
2019-03-22T23:06:47.104Z,10.03
2019-03-22T23:09:16.329Z,9.57
2019-03-22T23:11:45.526Z,8.87
2019-03-22T23:14:14.732Z,9.83
2019-03-22T23:16:43.938Z,10.33
2019-03-22T23:19:13.280Z,9.93
2019-03-22T23:21:42.469Z,12.73
2019-03-22T23:24:11.863Z,10.43
2019-03-22T23:26:41.477Z,10.43
2019-03-22T23:29:12.571Z,10.77
2019-03-22T23:31:41.777Z,12.20
2019-03-22T23:34:11.002Z,13.50
2019-03-22T23:36:42.010Z,13.30
2019-03-22T23:39:11.221Z,12.47
2019-03-22T23:41:40.515Z,13.50
2019-03-22T23:44:09.832Z,14.20
2019-03-22T23:46:39.829Z,12.73
2019-03-22T23:49:09.251Z,14.70
2019-03-22T23:51:38.553Z,18.33
2019-03-22T23:54:07.754Z,16.53
2019-03-22T23:56:37.155Z,13.90
2019-03-22T23:59:06.541Z,18.40
